sensor_id;sensor_type;location;lat;lon;timestamp;P1;durP1;ratioP1;P2;durP2;ratioP2
56680;SDS011;42558;52.388;13.390;2023-07-08T00:00:59;15.96;;;11.78;;
56680;SDS011;42558;52.388;13.390;2023-07-08T00:03:29;16.91;;;12.92;;
56680;SDS011;42558;52.388;13.390;2023-07-08T00:05:59;20.14;;;13.30;;
56680;SDS011;42558;52.388;13.390;2023-07-08T00:08:29;18.05;;;12.92;;
56680;SDS011;42558;52.388;13.390;2023-07-08T00:10:59;21.28;;;12.16;;
56680;SDS011;42558;52.388;13.390;2023-07-08T00:13:29;15.58;;;12.73;;
56680;SDS011;42558;52.388;13.390;2023-07-08T00:15:59;18.24;;;13.11;;
56680;SDS011;42558;52.388;13.390;2023-07-08T00:18:27;20.33;;;13.68;;
56680;SDS011;42558;52.388;13.390;2023-07-08T00:20:56;18.81;;;12.54;;
56680;SDS011;42558;52.388;13.390;2023-07-08T00:23:27;14.82;;;12.35;;
56680;SDS011;42558;52.388;13.390;2023-07-08T00:25:56;18.43;;;13.68;;
56680;SDS011;42558;52.388;13.390;2023-07-08T00:28:24;19.38;;;12.73;;
56680;SDS011;42558;52.388;13.390;2023-07-08T00:30:52;19.19;;;13.11;;
56680;SDS011;42558;52.388;13.390;2023-07-08T00:33:21;22.80;;;12.35;;
56680;SDS011;42558;52.388;13.390;2023-07-08T00:35:49;16.72;;;11.97;;
56680;SDS011;42558;52.388;13.390;2023-07-08T00:38:22;17.48;;;13.11;;
56680;SDS011;42558;52.388;13.390;2023-07-08T00:41:08;16.53;;;12.54;;
56680;SDS011;42558;52.388;13.390;2023-07-08T00:43:48;16.34;;;12.54;;
56680;SDS011;42558;52.388;13.390;2023-07-08T00:49:20;14.63;;;11.59;;
56680;SDS011;42558;52.388;13.390;2023-07-08T00:52:24;19.76;;;12.16;;
56680;SDS011;42558;52.388;13.390;2023-07-08T00:55:03;16.34;;;11.97;;
56680;SDS011;42558;52.388;13.390;2023-07-08T00:57:39;16.72;;;12.16;;
56680;SDS011;42558;52.388;13.390;2023-07-08T01:00:14;16.91;;;12.73;;
56680;SDS011;42558;52.388;13.390;2023-07-08T01:02:52;15.20;;;12.16;;
56680;SDS011;42558;52.388;13.390;2023-07-08T01:05:27;17.29;;;12.92;;
56680;SDS011;42558;52.388;13.390;2023-07-08T01:08:02;18.05;;;11.97;;
56680;SDS011;42558;52.388;13.390;2023-07-08T01:10:40;16.72;;;13.11;;
56680;SDS011;42558;52.388;13.390;2023-07-08T01:13:16;16.91;;;11.78;;
56680;SDS011;42558;52.388;13.390;2023-07-08T01:15:47;19.19;;;12.73;;
56680;SDS011;42558;52.388;13.390;2023-07-08T01:18:21;15.77;;;12.16;;
56680;SDS011;42558;52.388;13.390;2023-07-08T01:20:51;15.77;;;11.59;;
56680;SDS011;42558;52.388;13.390;2023-07-08T01:23:25;17.67;;;13.11;;
56680;SDS011;42558;52.388;13.390;2023-07-08T01:25:55;14.25;;;11.21;;
56680;SDS011;42558;52.388;13.390;2023-07-08T01:28:27;17.67;;;13.30;;
56680;SDS011;42558;52.388;13.390;2023-07-08T01:30:59;16.91;;;12.54;;
56680;SDS011;42558;52.388;13.390;2023-07-08T01:33:34;17.48;;;12.16;;
56680;SDS011;42558;52.388;13.390;2023-07-08T01:36:04;15.20;;;12.16;;
56680;SDS011;42558;52.388;13.390;2023-07-08T01:38:34;16.34;;;11.59;;
56680;SDS011;42558;52.388;13.390;2023-07-08T01:41:04;16.53;;;11.97;;
56680;SDS011;42558;52.388;13.390;2023-07-08T01:43:35;14.44;;;12.35;;
56680;SDS011;42558;52.388;13.390;2023-07-08T01:46:13;15.77;;;11.78;;
56680;SDS011;42558;52.388;13.390;2023-07-08T01:48:59;16.72;;;11.21;;
56680;SDS011;42558;52.388;13.390;2023-07-08T01:51:30;16.91;;;11.97;;
56680;SDS011;42558;52.388;13.390;2023-07-08T01:54:00;19.95;;;12.54;;
56680;SDS011;42558;52.388;13.390;2023-07-08T01:56:30;14.25;;;11.78;;
56680;SDS011;42558;52.388;13.390;2023-07-08T01:59:00;15.39;;;12.16;;
56680;SDS011;42558;52.388;13.390;2023-07-08T02:01:28;15.96;;;12.35;;
56680;SDS011;42558;52.388;13.390;2023-07-08T02:03:57;14.06;;;11.02;;
56680;SDS011;42558;52.388;13.390;2023-07-08T02:06:25;17.10;;;10.64;;
56680;SDS011;42558;52.388;13.390;2023-07-08T02:08:54;14.44;;;11.02;;
56680;SDS011;42558;52.388;13.390;2023-07-08T02:11:25;16.15;;;11.78;;
56680;SDS011;42558;52.388;13.390;2023-07-08T02:13:54;15.96;;;11.40;;
56680;SDS011;42558;52.388;13.390;2023-07-08T02:16:22;17.29;;;11.97;;
56680;SDS011;42558;52.388;13.390;2023-07-08T02:18:50;15.77;;;11.59;;
56680;SDS011;42558;52.388;13.390;2023-07-08T02:21:19;14.06;;;11.40;;
56680;SDS011;42558;52.388;13.390;2023-07-08T02:23:49;16.15;;;11.40;;
56680;SDS011;42558;52.388;13.390;2023-07-08T02:26:21;15.58;;;11.40;;
56680;SDS011;42558;52.388;13.390;2023-07-08T02:28:51;14.25;;;11.40;;
56680;SDS011;42558;52.388;13.390;2023-07-08T02:31:21;18.62;;;11.97;;
56680;SDS011;42558;52.388;13.390;2023-07-08T02:33:54;15.20;;;11.78;;
56680;SDS011;42558;52.388;13.390;2023-07-08T02:36:24;15.39;;;11.78;;
56680;SDS011;42558;52.388;13.390;2023-07-08T02:38:54;15.01;;;11.78;;
56680;SDS011;42558;52.388;13.390;2023-07-08T02:41:24;12.92;;;10.45;;
56680;SDS011;42558;52.388;13.390;2023-07-08T02:43:54;14.82;;;11.02;;
56680;SDS011;42558;52.388;13.390;2023-07-08T02:46:24;15.20;;;11.02;;
56680;SDS011;42558;52.388;13.390;2023-07-08T02:48:54;16.15;;;11.40;;
56680;SDS011;42558;52.388;13.390;2023-07-08T02:51:24;18.24;;;12.16;;
56680;SDS011;42558;52.388;13.390;2023-07-08T02:53:54;15.58;;;10.45;;
56680;SDS011;42558;52.388;13.390;2023-07-08T02:56:22;13.68;;;9.69;;
56680;SDS011;42558;52.388;13.390;2023-07-08T02:58:51;14.06;;;10.83;;
56680;SDS011;42558;52.388;13.390;2023-07-08T03:01:19;15.20;;;11.21;;
56680;SDS011;42558;52.388;13.390;2023-07-08T03:03:48;12.73;;;11.02;;
56680;SDS011;42558;52.388;13.390;2023-07-08T03:06:16;16.53;;;10.45;;
56680;SDS011;42558;52.388;13.390;2023-07-08T03:08:44;15.20;;;11.40;;
56680;SDS011;42558;52.388;13.390;2023-07-08T03:11:13;15.39;;;11.78;;
56680;SDS011;42558;52.388;13.390;2023-07-08T03:13:42;13.49;;;10.83;;
56680;SDS011;42558;52.388;13.390;2023-07-08T03:16:10;14.44;;;11.78;;
56680;SDS011;42558;52.388;13.390;2023-07-08T03:18:41;16.91;;;11.02;;
56680;SDS011;42558;52.388;13.390;2023-07-08T03:21:17;13.30;;;10.83;;
56680;SDS011;42558;52.388;13.390;2023-07-08T03:23:49;12.92;;;11.02;;
56680;SDS011;42558;52.388;13.390;2023-07-08T03:26:22;15.39;;;10.83;;
56680;SDS011;42558;52.388;13.390;2023-07-08T03:28:53;17.67;;;10.83;;
56680;SDS011;42558;52.388;13.390;2023-07-08T03:31:23;12.16;;;10.07;;
56680;SDS011;42558;52.388;13.390;2023-07-08T03:33:53;16.15;;;11.02;;
56680;SDS011;42558;52.388;13.390;2023-07-08T03:36:23;15.01;;;11.59;;
56680;SDS011;42558;52.388;13.390;2023-07-08T03:38:55;14.06;;;10.83;;
56680;SDS011;42558;52.388;13.390;2023-07-08T03:41:25;13.68;;;10.83;;
56680;SDS011;42558;52.388;13.390;2023-07-08T03:43:53;15.58;;;11.02;;
56680;SDS011;42558;52.388;13.390;2023-07-08T03:46:22;14.06;;;10.83;;
56680;SDS011;42558;52.388;13.390;2023-07-08T03:48:50;14.44;;;11.02;;
56680;SDS011;42558;52.388;13.390;2023-07-08T03:51:30;17.48;;;11.59;;
56680;SDS011;42558;52.388;13.390;2023-07-08T03:54:01;13.11;;;10.64;;
56680;SDS011;42558;52.388;13.390;2023-07-08T03:56:32;15.77;;;10.64;;
56680;SDS011;42558;52.388;13.390;2023-07-08T03:59:02;14.25;;;10.83;;
56680;SDS011;42558;52.388;13.390;2023-07-08T04:01:32;17.67;;;11.40;;
56680;SDS011;42558;52.388;13.390;2023-07-08T04:04:02;13.49;;;10.83;;
56680;SDS011;42558;52.388;13.390;2023-07-08T04:06:32;15.01;;;11.59;;
56680;SDS011;42558;52.388;13.390;2023-07-08T04:09:03;12.92;;;10.83;;
56680;SDS011;42558;52.388;13.390;2023-07-08T04:11:34;15.20;;;11.02;;
56680;SDS011;42558;52.388;13.390;2023-07-08T04:14:04;12.73;;;10.83;;
56680;SDS011;42558;52.388;13.390;2023-07-08T04:16:55;14.06;;;11.21;;
56680;SDS011;42558;52.388;13.390;2023-07-08T04:19:28;14.63;;;10.45;;
56680;SDS011;42558;52.388;13.390;2023-07-08T04:21:58;13.30;;;9.88;;
56680;SDS011;42558;52.388;13.390;2023-07-08T04:24:28;15.01;;;10.45;;
56680;SDS011;42558;52.388;13.390;2023-07-08T04:26:58;12.92;;;11.02;;
56680;SDS011;42558;52.388;13.390;2023-07-08T04:29:28;16.15;;;11.78;;
56680;SDS011;42558;52.388;13.390;2023-07-08T04:31:58;14.44;;;11.21;;
56680;SDS011;42558;52.388;13.390;2023-07-08T04:34:25;14.06;;;11.21;;
56680;SDS011;42558;52.388;13.390;2023-07-08T04:36:52;14.06;;;10.07;;
56680;SDS011;42558;52.388;13.390;2023-07-08T04:39:22;15.39;;;10.83;;
56680;SDS011;42558;52.388;13.390;2023-07-08T04:41:50;14.25;;;9.88;;
56680;SDS011;42558;52.388;13.390;2023-07-08T04:44:19;15.39;;;10.83;;
56680;SDS011;42558;52.388;13.390;2023-07-08T04:46:56;14.25;;;10.26;;
56680;SDS011;42558;52.388;13.390;2023-07-08T04:49:25;13.68;;;10.45;;
56680;SDS011;42558;52.388;13.390;2023-07-08T04:52:02;15.01;;;11.02;;
56680;SDS011;42558;52.388;13.390;2023-07-08T04:54:32;14.82;;;9.88;;
56680;SDS011;42558;52.388;13.390;2023-07-08T04:57:02;12.73;;;10.45;;
56680;SDS011;42558;52.388;13.390;2023-07-08T04:59:32;11.59;;;10.26;;
56680;SDS011;42558;52.388;13.390;2023-07-08T05:02:04;14.63;;;11.59;;
56680;SDS011;42558;52.388;13.390;2023-07-08T05:04:33;13.87;;;10.83;;
56680;SDS011;42558;52.388;13.390;2023-07-08T05:07:01;13.30;;;10.83;;
56680;SDS011;42558;52.388;13.390;2023-07-08T05:09:29;13.30;;;10.64;;
56680;SDS011;42558;52.388;13.390;2023-07-08T05:12:01;13.87;;;10.07;;
56680;SDS011;42558;52.388;13.390;2023-07-08T05:14:29;14.63;;;10.26;;
56680;SDS011;42558;52.388;13.390;2023-07-08T05:16:57;13.30;;;10.45;;
56680;SDS011;42558;52.388;13.390;2023-07-08T05:19:26;14.25;;;10.45;;
56680;SDS011;42558;52.388;13.390;2023-07-08T05:21:54;15.58;;;10.45;;
56680;SDS011;42558;52.388;13.390;2023-07-08T05:24:23;12.35;;;10.07;;
56680;SDS011;42558;52.388;13.390;2023-07-08T05:26:51;13.68;;;11.02;;
56680;SDS011;42558;52.388;13.390;2023-07-08T05:29:20;13.87;;;9.69;;
56680;SDS011;42558;52.388;13.390;2023-07-08T05:31:48;13.11;;;10.45;;
56680;SDS011;42558;52.388;13.390;2023-07-08T05:34:17;17.86;;;10.83;;
56680;SDS011;42558;52.388;13.390;2023-07-08T05:36:45;13.11;;;10.26;;
56680;SDS011;42558;52.388;13.390;2023-07-08T05:39:14;12.73;;;8.74;;
56680;SDS011;42558;52.388;13.390;2023-07-08T05:41:42;15.20;;;9.50;;
56680;SDS011;42558;52.388;13.390;2023-07-08T05:44:10;12.16;;;10.45;;
56680;SDS011;42558;52.388;13.390;2023-07-08T05:46:39;11.21;;;9.88;;
56680;SDS011;42558;52.388;13.390;2023-07-08T05:49:07;12.73;;;9.88;;
56680;SDS011;42558;52.388;13.390;2023-07-08T05:51:36;12.92;;;9.69;;
56680;SDS011;42558;52.388;13.390;2023-07-08T05:54:05;11.97;;;9.12;;
56680;SDS011;42558;52.388;13.390;2023-07-08T05:56:33;15.39;;;10.64;;
56680;SDS011;42558;52.388;13.390;2023-07-08T05:59:02;12.54;;;9.69;;
56680;SDS011;42558;52.388;13.390;2023-07-08T06:01:33;15.77;;;9.50;;
56680;SDS011;42558;52.388;13.390;2023-07-08T06:04:03;14.06;;;9.31;;
56680;SDS011;42558;52.388;13.390;2023-07-08T06:06:33;11.21;;;8.93;;
56680;SDS011;42558;52.388;13.390;2023-07-08T06:09:03;12.54;;;9.50;;
56680;SDS011;42558;52.388;13.390;2023-07-08T06:11:33;11.97;;;9.50;;
56680;SDS011;42558;52.388;13.390;2023-07-08T06:14:03;15.77;;;10.07;;
56680;SDS011;42558;52.388;13.390;2023-07-08T06:16:33;13.30;;;10.45;;
56680;SDS011;42558;52.388;13.390;2023-07-08T06:19:10;12.16;;;10.07;;
56680;SDS011;42558;52.388;13.390;2023-07-08T06:21:40;11.02;;;8.74;;
56680;SDS011;42558;52.388;13.390;2023-07-08T06:24:08;11.21;;;10.07;;
56680;SDS011;42558;52.388;13.390;2023-07-08T06:26:37;13.87;;;9.88;;
56680;SDS011;42558;52.388;13.390;2023-07-08T06:29:05;12.54;;;10.26;;
56680;SDS011;42558;52.388;13.390;2023-07-08T06:31:34;12.35;;;10.07;;
56680;SDS011;42558;52.388;13.390;2023-07-08T06:34:02;13.68;;;9.50;;
56680;SDS011;42558;52.388;13.390;2023-07-08T06:36:31;13.30;;;9.12;;
56680;SDS011;42558;52.388;13.390;2023-07-08T06:38:59;11.40;;;9.88;;
56680;SDS011;42558;52.388;13.390;2023-07-08T06:41:27;12.92;;;8.93;;
56680;SDS011;42558;52.388;13.390;2023-07-08T06:43:56;11.40;;;8.55;;
56680;SDS011;42558;52.388;13.390;2023-07-08T06:46:24;15.77;;;9.50;;
56680;SDS011;42558;52.388;13.390;2023-07-08T06:48:55;15.39;;;9.50;;
56680;SDS011;42558;52.388;13.390;2023-07-08T06:51:23;13.49;;;8.93;;
56680;SDS011;42558;52.388;13.390;2023-07-08T06:53:52;12.16;;;8.36;;
56680;SDS011;42558;52.388;13.390;2023-07-08T06:56:20;12.92;;;9.50;;
56680;SDS011;42558;52.388;13.390;2023-07-08T06:58:49;12.54;;;9.12;;
56680;SDS011;42558;52.388;13.390;2023-07-08T07:01:17;13.49;;;9.50;;
56680;SDS011;42558;52.388;13.390;2023-07-08T07:03:45;13.68;;;9.12;;
56680;SDS011;42558;52.388;13.390;2023-07-08T07:06:14;10.07;;;8.17;;
56680;SDS011;42558;52.388;13.390;2023-07-08T07:08:42;9.69;;;7.79;;
56680;SDS011;42558;52.388;13.390;2023-07-08T07:11:11;9.69;;;7.79;;
56680;SDS011;42558;52.388;13.390;2023-07-08T07:13:39;9.88;;;7.60;;
56680;SDS011;42558;52.388;13.390;2023-07-08T07:16:08;10.07;;;8.17;;
56680;SDS011;42558;52.388;13.390;2023-07-08T07:18:36;17.10;;;8.55;;
56680;SDS011;42558;52.388;13.390;2023-07-08T07:21:05;10.83;;;8.36;;
56680;SDS011;42558;52.388;13.390;2023-07-08T07:23:33;12.16;;;7.79;;
56680;SDS011;42558;52.388;13.390;2023-07-08T07:26:01;11.21;;;8.36;;
56680;SDS011;42558;52.388;13.390;2023-07-08T07:28:30;11.02;;;8.36;;
56680;SDS011;42558;52.388;13.390;2023-07-08T07:30:59;10.83;;;7.98;;
56680;SDS011;42558;52.388;13.390;2023-07-08T07:33:27;8.93;;;7.60;;
56680;SDS011;42558;52.388;13.390;2023-07-08T07:35:58;15.01;;;7.98;;
56680;SDS011;42558;52.388;13.390;2023-07-08T07:38:27;12.54;;;7.60;;
56680;SDS011;42558;52.388;13.390;2023-07-08T07:40:58;10.83;;;7.41;;
56680;SDS011;42558;52.388;13.390;2023-07-08T07:43:29;10.45;;;7.79;;
56680;SDS011;42558;52.388;13.390;2023-07-08T07:45:59;9.31;;;7.03;;
56680;SDS011;42558;52.388;13.390;2023-07-08T07:48:29;9.31;;;7.22;;
56680;SDS011;42558;52.388;13.390;2023-07-08T07:50:59;10.45;;;7.22;;
56680;SDS011;42558;52.388;13.390;2023-07-08T07:53:29;11.21;;;8.55;;
56680;SDS011;42558;52.388;13.390;2023-07-08T07:56:00;10.07;;;7.98;;
56680;SDS011;42558;52.388;13.390;2023-07-08T07:58:33;11.40;;;7.60;;
56680;SDS011;42558;52.388;13.390;2023-07-08T08:01:03;10.07;;;7.03;;
56680;SDS011;42558;52.388;13.390;2023-07-08T08:03:33;10.26;;;7.98;;
56680;SDS011;42558;52.388;13.390;2023-07-08T08:06:01;9.88;;;7.79;;
56680;SDS011;42558;52.388;13.390;2023-07-08T08:08:30;9.31;;;6.84;;
56680;SDS011;42558;52.388;13.390;2023-07-08T08:10:58;9.31;;;7.60;;
56680;SDS011;42558;52.388;13.390;2023-07-08T08:13:27;12.35;;;7.60;;
56680;SDS011;42558;52.388;13.390;2023-07-08T08:15:56;11.78;;;7.60;;
56680;SDS011;42558;52.388;13.390;2023-07-08T08:18:27;10.64;;;7.79;;
56680;SDS011;42558;52.388;13.390;2023-07-08T08:20:56;9.69;;;7.22;;
56680;SDS011;42558;52.388;13.390;2023-07-08T08:23:24;11.97;;;7.22;;
56680;SDS011;42558;52.388;13.390;2023-07-08T08:25:52;10.45;;;7.60;;
56680;SDS011;42558;52.388;13.390;2023-07-08T08:28:21;11.78;;;7.79;;
56680;SDS011;42558;52.388;13.390;2023-07-08T08:30:50;11.97;;;7.98;;
56680;SDS011;42558;52.388;13.390;2023-07-08T08:33:18;11.02;;;7.79;;
56680;SDS011;42558;52.388;13.390;2023-07-08T08:35:46;10.83;;;6.84;;
56680;SDS011;42558;52.388;13.390;2023-07-08T08:38:14;10.45;;;7.41;;
56680;SDS011;42558;52.388;13.390;2023-07-08T08:40:43;12.92;;;7.41;;
56680;SDS011;42558;52.388;13.390;2023-07-08T08:43:34;12.16;;;6.65;;
56680;SDS011;42558;52.388;13.390;2023-07-08T08:46:15;10.07;;;6.84;;
56680;SDS011;42558;52.388;13.390;2023-07-08T08:48:59;11.02;;;6.08;;
56680;SDS011;42558;52.388;13.390;2023-07-08T08:51:42;15.20;;;6.84;;
56680;SDS011;42558;52.388;13.390;2023-07-08T08:54:12;11.97;;;6.08;;
56680;SDS011;42558;52.388;13.390;2023-07-08T08:59:57;9.69;;;6.65;;
56680;SDS011;42558;52.388;13.390;2023-07-08T09:02:41;11.02;;;6.27;;
56680;SDS011;42558;52.388;13.390;2023-07-08T09:05:20;8.93;;;5.70;;
56680;SDS011;42558;52.388;13.390;2023-07-08T09:11:15;8.93;;;6.84;;
56680;SDS011;42558;52.388;13.390;2023-07-08T09:13:50;10.64;;;6.84;;
56680;SDS011;42558;52.388;13.390;2023-07-08T09:19:35;10.45;;;6.27;;
56680;SDS011;42558;52.388;13.390;2023-07-08T09:27:46;11.02;;;6.27;;
56680;SDS011;42558;52.388;13.390;2023-07-08T09:30:19;7.79;;;5.13;;
56680;SDS011;42558;52.388;13.390;2023-07-08T09:32:52;9.69;;;5.13;;
56680;SDS011;42558;52.388;13.390;2023-07-08T09:35:28;9.12;;;5.89;;
56680;SDS011;42558;52.388;13.390;2023-07-08T09:38:09;12.92;;;5.89;;
56680;SDS011;42558;52.388;13.390;2023-07-08T09:40:49;10.83;;;5.89;;
56680;SDS011;42558;52.388;13.390;2023-07-08T09:43:34;9.31;;;5.70;;
56680;SDS011;42558;52.388;13.390;2023-07-08T09:46:05;11.21;;;5.70;;
56680;SDS011;42558;52.388;13.390;2023-07-08T09:48:42;8.36;;;6.08;;
56680;SDS011;42558;52.388;13.390;2023-07-08T09:51:09;10.07;;;5.51;;
56680;SDS011;42558;52.388;13.390;2023-07-08T09:53:38;8.74;;;6.08;;
56680;SDS011;42558;52.388;13.390;2023-07-08T09:56:08;10.26;;;5.89;;
56680;SDS011;42558;52.388;13.390;2023-07-08T09:58:41;7.98;;;6.27;;
56680;SDS011;42558;52.388;13.390;2023-07-08T10:01:22;11.21;;;6.84;;
56680;SDS011;42558;52.388;13.390;2023-07-08T10:03:59;7.79;;;5.70;;
56680;SDS011;42558;52.388;13.390;2023-07-08T10:06:31;9.88;;;6.46;;
56680;SDS011;42558;52.388;13.390;2023-07-08T10:09:12;8.93;;;6.27;;
56680;SDS011;42558;52.388;13.390;2023-07-08T10:11:51;7.79;;;6.27;;
56680;SDS011;42558;52.388;13.390;2023-07-08T10:14:39;9.12;;;7.22;;
56680;SDS011;42558;52.388;13.390;2023-07-08T10:17:18;9.12;;;6.08;;
56680;SDS011;42558;52.388;13.390;2023-07-08T10:19:49;9.69;;;6.08;;
56680;SDS011;42558;52.388;13.390;2023-07-08T10:22:51;12.92;;;6.46;;
56680;SDS011;42558;52.388;13.390;2023-07-08T10:25:58;9.69;;;5.89;;
56680;SDS011;42558;52.388;13.390;2023-07-08T10:28:39;9.69;;;6.27;;
56680;SDS011;42558;52.388;13.390;2023-07-08T10:34:07;8.74;;;6.08;;
56680;SDS011;42558;52.388;13.390;2023-07-08T10:42:54;10.26;;;6.46;;
56680;SDS011;42558;52.388;13.390;2023-07-08T10:45:31;20.71;;;18.62;;
56680;SDS011;42558;52.388;13.390;2023-07-08T10:59:48;9.88;;;6.46;;
56680;SDS011;42558;52.388;13.390;2023-07-08T11:05:33;9.31;;;6.27;;
56680;SDS011;42558;52.388;13.390;2023-07-08T11:08:27;11.59;;;6.27;;
56680;SDS011;42558;52.388;13.390;2023-07-08T11:14:04;11.59;;;6.84;;
56680;SDS011;42558;52.388;13.390;2023-07-08T11:16:45;10.45;;;6.27;;
56680;SDS011;42558;52.388;13.390;2023-07-08T11:19:48;10.07;;;6.46;;
56680;SDS011;42558;52.388;13.390;2023-07-08T11:22:22;7.79;;;5.89;;
56680;SDS011;42558;52.388;13.390;2023-07-08T11:24:55;10.07;;;6.27;;
56680;SDS011;42558;52.388;13.390;2023-07-08T11:27:32;10.26;;;6.84;;
56680;SDS011;42558;52.388;13.390;2023-07-08T11:30:12;9.12;;;5.89;;
56680;SDS011;42558;52.388;13.390;2023-07-08T11:32:48;8.36;;;5.32;;
56680;SDS011;42558;52.388;13.390;2023-07-08T11:35:47;10.83;;;6.65;;
56680;SDS011;42558;52.388;13.390;2023-07-08T11:38:20;10.64;;;6.65;;
56680;SDS011;42558;52.388;13.390;2023-07-08T11:41:02;9.88;;;6.46;;
56680;SDS011;42558;52.388;13.390;2023-07-08T11:43:52;8.93;;;6.46;;
56680;SDS011;42558;52.388;13.390;2023-07-08T11:46:29;8.74;;;6.08;;
56680;SDS011;42558;52.388;13.390;2023-07-08T11:49:04;9.88;;;6.27;;
56680;SDS011;42558;52.388;13.390;2023-07-08T11:51:44;10.26;;;6.27;;
56680;SDS011;42558;52.388;13.390;2023-07-08T11:54:30;13.11;;;6.46;;
56680;SDS011;42558;52.388;13.390;2023-07-08T11:57:05;9.31;;;6.08;;
56680;SDS011;42558;52.388;13.390;2023-07-08T11:59:40;10.45;;;6.65;;
56680;SDS011;42558;52.388;13.390;2023-07-08T12:02:16;8.74;;;5.89;;
56680;SDS011;42558;52.388;13.390;2023-07-08T12:05:13;10.07;;;6.08;;
56680;SDS011;42558;52.388;13.390;2023-07-08T12:07:46;10.83;;;6.46;;
56680;SDS011;42558;52.388;13.390;2023-07-08T12:10:24;8.93;;;6.46;;
56680;SDS011;42558;52.388;13.390;2023-07-08T12:12:54;8.93;;;6.08;;
56680;SDS011;42558;52.388;13.390;2023-07-08T12:15:25;7.98;;;6.08;;
56680;SDS011;42558;52.388;13.390;2023-07-08T12:18:10;9.69;;;6.27;;
56680;SDS011;42558;52.388;13.390;2023-07-08T12:20:41;9.50;;;6.65;;
56680;SDS011;42558;52.388;13.390;2023-07-08T12:23:14;8.93;;;5.89;;
56680;SDS011;42558;52.388;13.390;2023-07-08T12:25:48;8.55;;;6.08;;
56680;SDS011;42558;52.388;13.390;2023-07-08T12:28:19;8.55;;;6.27;;
56680;SDS011;42558;52.388;13.390;2023-07-08T12:30:50;10.26;;;6.46;;
56680;SDS011;42558;52.388;13.390;2023-07-08T12:36:03;9.50;;;6.65;;
56680;SDS011;42558;52.388;13.390;2023-07-08T12:38:39;11.21;;;7.03;;
56680;SDS011;42558;52.388;13.390;2023-07-08T12:41:14;11.21;;;6.65;;
56680;SDS011;42558;52.388;13.390;2023-07-08T12:43:47;8.93;;;6.65;;
56680;SDS011;42558;52.388;13.390;2023-07-08T12:46:20;10.07;;;6.84;;
56680;SDS011;42558;52.388;13.390;2023-07-08T12:48:52;9.50;;;7.03;;
56680;SDS011;42558;52.388;13.390;2023-07-08T12:51:24;13.68;;;6.65;;
56680;SDS011;42558;52.388;13.390;2023-07-08T12:53:54;9.69;;;6.84;;
56680;SDS011;42558;52.388;13.390;2023-07-08T12:56:23;10.26;;;7.22;;
56680;SDS011;42558;52.388;13.390;2023-07-08T12:58:56;9.12;;;6.84;;
56680;SDS011;42558;52.388;13.390;2023-07-08T13:01:30;11.97;;;6.84;;
56680;SDS011;42558;52.388;13.390;2023-07-08T13:04:06;8.55;;;6.27;;
56680;SDS011;42558;52.388;13.390;2023-07-08T13:06:43;12.54;;;7.03;;
56680;SDS011;42558;52.388;13.390;2023-07-08T13:12:20;10.45;;;7.03;;
56680;SDS011;42558;52.388;13.390;2023-07-08T13:14:55;12.92;;;6.46;;
56680;SDS011;42558;52.388;13.390;2023-07-08T13:17:29;9.31;;;6.46;;
56680;SDS011;42558;52.388;13.390;2023-07-08T13:19:57;9.12;;;6.46;;
56680;SDS011;42558;52.388;13.390;2023-07-08T13:22:26;11.78;;;7.22;;
56680;SDS011;42558;52.388;13.390;2023-07-08T13:25:02;11.40;;;7.03;;
56680;SDS011;42558;52.388;13.390;2023-07-08T13:27:32;9.69;;;6.65;;
56680;SDS011;42558;52.388;13.390;2023-07-08T13:30:19;10.64;;;7.60;;
56680;SDS011;42558;52.388;13.390;2023-07-08T13:32:54;9.88;;;7.22;;
56680;SDS011;42558;52.388;13.390;2023-07-08T13:35:27;10.64;;;6.84;;
56680;SDS011;42558;52.388;13.390;2023-07-08T13:38:14;11.97;;;7.22;;
56680;SDS011;42558;52.388;13.390;2023-07-08T13:40:55;8.55;;;6.65;;
56680;SDS011;42558;52.388;13.390;2023-07-08T13:43:32;10.26;;;6.46;;
56680;SDS011;42558;52.388;13.390;2023-07-08T13:46:05;10.64;;;6.84;;
56680;SDS011;42558;52.388;13.390;2023-07-08T13:48:40;10.83;;;6.84;;
56680;SDS011;42558;52.388;13.390;2023-07-08T13:51:31;12.16;;;6.46;;
56680;SDS011;42558;52.388;13.390;2023-07-08T13:54:08;9.50;;;6.46;;
56680;SDS011;42558;52.388;13.390;2023-07-08T13:56:43;9.31;;;6.65;;
56680;SDS011;42558;52.388;13.390;2023-07-08T13:59:23;9.69;;;6.65;;
56680;SDS011;42558;52.388;13.390;2023-07-08T14:01:56;9.31;;;6.65;;
56680;SDS011;42558;52.388;13.390;2023-07-08T14:04:33;9.31;;;7.22;;
56680;SDS011;42558;52.388;13.390;2023-07-08T14:07:11;10.64;;;7.60;;
56680;SDS011;42558;52.388;13.390;2023-07-08T14:09:47;11.21;;;6.84;;
56680;SDS011;42558;52.388;13.390;2023-07-08T14:12:17;9.12;;;6.84;;
56680;SDS011;42558;52.388;13.390;2023-07-08T14:14:51;10.83;;;7.22;;
56680;SDS011;42558;52.388;13.390;2023-07-08T14:17:24;9.12;;;6.84;;
56680;SDS011;42558;52.388;13.390;2023-07-08T14:19:57;11.21;;;7.22;;
56680;SDS011;42558;52.388;13.390;2023-07-08T14:22:29;10.07;;;7.41;;
56680;SDS011;42558;52.388;13.390;2023-07-08T14:25:06;9.31;;;7.60;;
56680;SDS011;42558;52.388;13.390;2023-07-08T14:27:36;10.64;;;6.84;;
56680;SDS011;42558;52.388;13.390;2023-07-08T14:30:09;10.64;;;7.22;;
56680;SDS011;42558;52.388;13.390;2023-07-08T14:32:38;11.59;;;6.84;;
56680;SDS011;42558;52.388;13.390;2023-07-08T14:35:20;9.69;;;6.84;;
56680;SDS011;42558;52.388;13.390;2023-07-08T14:37:54;9.69;;;7.22;;
56680;SDS011;42558;52.388;13.390;2023-07-08T14:40:34;9.12;;;5.89;;
56680;SDS011;42558;52.388;13.390;2023-07-08T14:43:24;10.64;;;6.46;;
56680;SDS011;42558;52.388;13.390;2023-07-08T14:46:03;11.59;;;7.22;;
56680;SDS011;42558;52.388;13.390;2023-07-08T14:48:34;9.88;;;7.22;;
56680;SDS011;42558;52.388;13.390;2023-07-08T14:51:03;9.31;;;7.03;;
56680;SDS011;42558;52.388;13.390;2023-07-08T14:53:33;10.26;;;6.84;;
56680;SDS011;42558;52.388;13.390;2023-07-08T14:56:12;9.69;;;6.65;;
56680;SDS011;42558;52.388;13.390;2023-07-08T14:58:45;10.45;;;7.22;;
56680;SDS011;42558;52.388;13.390;2023-07-08T15:01:20;12.54;;;7.41;;
56680;SDS011;42558;52.388;13.390;2023-07-08T15:03:51;9.50;;;7.41;;
56680;SDS011;42558;52.388;13.390;2023-07-08T15:06:20;10.64;;;8.17;;
56680;SDS011;42558;52.388;13.390;2023-07-08T15:08:47;10.26;;;7.22;;
56680;SDS011;42558;52.388;13.390;2023-07-08T15:11:17;9.31;;;6.84;;
56680;SDS011;42558;52.388;13.390;2023-07-08T15:13:48;12.73;;;7.22;;
56680;SDS011;42558;52.388;13.390;2023-07-08T15:16:19;9.12;;;6.46;;
56680;SDS011;42558;52.388;13.390;2023-07-08T15:18:49;10.07;;;7.22;;
56680;SDS011;42558;52.388;13.390;2023-07-08T15:21:19;10.07;;;7.41;;
56680;SDS011;42558;52.388;13.390;2023-07-08T15:23:49;11.59;;;7.22;;
56680;SDS011;42558;52.388;13.390;2023-07-08T15:26:19;9.12;;;7.22;;
56680;SDS011;42558;52.388;13.390;2023-07-08T15:28:51;8.93;;;7.22;;
56680;SDS011;42558;52.388;13.390;2023-07-08T15:31:31;12.35;;;7.03;;
56680;SDS011;42558;52.388;13.390;2023-07-08T15:34:07;10.83;;;7.22;;
56680;SDS011;42558;52.388;13.390;2023-07-08T15:36:43;9.12;;;6.46;;
56680;SDS011;42558;52.388;13.390;2023-07-08T15:39:14;9.88;;;7.22;;
56680;SDS011;42558;52.388;13.390;2023-07-08T15:41:44;9.88;;;6.84;;